sensor_id;sensor_type;location;lat;lon;timestamp;P1;durP1;ratioP1;P2;durP2;ratioP2
31652;SDS011;18261;53.648;9.910;2022-08-19T00:00:43;24.38;;;11.88;;
31652;SDS011;18261;53.648;9.910;2022-08-19T00:03:08;26.55;;;13.85;;
31652;SDS011;18261;53.648;9.910;2022-08-19T00:05:35;23.55;;;14.20;;
31652;SDS011;18261;53.648;9.910;2022-08-19T00:08:00;29.42;;;16.85;;
31652;SDS011;18261;53.648;9.910;2022-08-19T00:10:26;25.65;;;16.15;;
31652;SDS011;18261;53.648;9.910;2022-08-19T00:12:53;34.78;;;19.23;;
31652;SDS011;18261;53.648;9.910;2022-08-19T00:15:19;30.15;;;18.50;;
31652;SDS011;18261;53.648;9.910;2022-08-19T00:17:45;25.17;;;17.33;;
31652;SDS011;18261;53.648;9.910;2022-08-19T00:20:12;32.97;;;18.63;;
31652;SDS011;18261;53.648;9.910;2022-08-19T00:22:41;29.75;;;18.63;;
31652;SDS011;18261;53.648;9.910;2022-08-19T00:25:07;35.88;;;19.13;;
31652;SDS011;18261;53.648;9.910;2022-08-19T00:27:33;32.85;;;19.52;;
31652;SDS011;18261;53.648;9.910;2022-08-19T00:30:00;41.55;;;22.77;;
31652;SDS011;18261;53.648;9.910;2022-08-19T00:32:28;33.90;;;20.13;;
31652;SDS011;18261;53.648;9.910;2022-08-19T00:34:54;34.55;;;19.55;;
31652;SDS011;18261;53.648;9.910;2022-08-19T00:37:23;32.50;;;17.92;;
31652;SDS011;18261;53.648;9.910;2022-08-19T00:39:51;31.48;;;19.58;;
31652;SDS011;18261;53.648;9.910;2022-08-19T00:42:18;34.08;;;19.00;;
31652;SDS011;18261;53.648;9.910;2022-08-19T00:44:44;31.88;;;18.23;;
31652;SDS011;18261;53.648;9.910;2022-08-19T00:47:10;35.42;;;18.88;;
31652;SDS011;18261;53.648;9.910;2022-08-19T00:49:39;31.90;;;18.83;;
31652;SDS011;18261;53.648;9.910;2022-08-19T00:52:07;34.42;;;17.85;;
31652;SDS011;18261;53.648;9.910;2022-08-19T00:54:34;31.65;;;18.40;;
31652;SDS011;18261;53.648;9.910;2022-08-19T00:57:01;38.38;;;19.52;;
31652;SDS011;18261;53.648;9.910;2022-08-19T00:59:29;32.45;;;19.52;;
31652;SDS011;18261;53.648;9.910;2022-08-19T01:01:55;34.40;;;18.42;;
31652;SDS011;18261;53.648;9.910;2022-08-19T01:04:21;36.88;;;19.23;;
31652;SDS011;18261;53.648;9.910;2022-08-19T01:06:47;37.83;;;19.13;;
31652;SDS011;18261;53.648;9.910;2022-08-19T01:09:13;48.17;;;22.27;;
31652;SDS011;18261;53.648;9.910;2022-08-19T01:11:40;43.30;;;23.60;;
31652;SDS011;18261;53.648;9.910;2022-08-19T01:14:07;60.47;;;27.88;;
31652;SDS011;18261;53.648;9.910;2022-08-19T01:16:33;50.58;;;25.60;;
31652;SDS011;18261;53.648;9.910;2022-08-19T01:19:00;51.58;;;25.17;;
31652;SDS011;18261;53.648;9.910;2022-08-19T01:21:31;48.33;;;24.77;;
31652;SDS011;18261;53.648;9.910;2022-08-19T01:23:58;49.30;;;25.42;;
31652;SDS011;18261;53.648;9.910;2022-08-19T01:26:24;43.70;;;25.50;;
31652;SDS011;18261;53.648;9.910;2022-08-19T01:28:51;48.65;;;25.50;;
31652;SDS011;18261;53.648;9.910;2022-08-19T01:31:21;47.97;;;24.65;;
31652;SDS011;18261;53.648;9.910;2022-08-19T01:33:48;47.17;;;23.35;;
31652;SDS011;18261;53.648;9.910;2022-08-19T01:36:15;48.33;;;24.77;;
31652;SDS011;18261;53.648;9.910;2022-08-19T01:38:42;55.90;;;27.48;;
31652;SDS011;18261;53.648;9.910;2022-08-19T01:41:11;49.08;;;24.88;;
31652;SDS011;18261;53.648;9.910;2022-08-19T01:43:37;53.17;;;25.10;;
31652;SDS011;18261;53.648;9.910;2022-08-19T01:46:03;53.30;;;26.13;;
31652;SDS011;18261;53.648;9.910;2022-08-19T01:48:34;54.13;;;25.25;;
31652;SDS011;18261;53.648;9.910;2022-08-19T01:51:00;53.58;;;26.02;;
31652;SDS011;18261;53.648;9.910;2022-08-19T01:53:26;59.78;;;26.45;;
31652;SDS011;18261;53.648;9.910;2022-08-19T01:55:52;49.88;;;23.45;;
31652;SDS011;18261;53.648;9.910;2022-08-19T01:58:19;49.90;;;23.42;;
31652;SDS011;18261;53.648;9.910;2022-08-19T02:00:46;54.47;;;24.83;;
31652;SDS011;18261;53.648;9.910;2022-08-19T02:03:12;54.83;;;24.35;;
31652;SDS011;18261;53.648;9.910;2022-08-19T02:05:39;51.95;;;24.73;;
31652;SDS011;18261;53.648;9.910;2022-08-19T02:08:06;54.92;;;26.52;;
31652;SDS011;18261;53.648;9.910;2022-08-19T02:10:32;60.08;;;24.50;;
31652;SDS011;18261;53.648;9.910;2022-08-19T02:12:58;52.58;;;23.90;;
31652;SDS011;18261;53.648;9.910;2022-08-19T02:15:24;51.25;;;23.85;;
31652;SDS011;18261;53.648;9.910;2022-08-19T02:17:50;65.93;;;27.27;;
31652;SDS011;18261;53.648;9.910;2022-08-19T02:20:17;74.40;;;28.52;;
31652;SDS011;18261;53.648;9.910;2022-08-19T02:22:43;73.40;;;27.60;;
31652;SDS011;18261;53.648;9.910;2022-08-19T02:25:12;75.57;;;30.08;;
31652;SDS011;18261;53.648;9.910;2022-08-19T02:27:39;77.43;;;28.17;;
31652;SDS011;18261;53.648;9.910;2022-08-19T02:30:05;75.80;;;28.45;;
31652;SDS011;18261;53.648;9.910;2022-08-19T02:32:31;76.40;;;30.23;;
31652;SDS011;18261;53.648;9.910;2022-08-19T02:34:58;85.63;;;32.95;;
31652;SDS011;18261;53.648;9.910;2022-08-19T02:37:24;80.10;;;30.35;;
31652;SDS011;18261;53.648;9.910;2022-08-19T02:40:08;78.93;;;29.38;;
31652;SDS011;18261;53.648;9.910;2022-08-19T02:42:34;84.72;;;32.72;;
31652;SDS011;18261;53.648;9.910;2022-08-19T02:45:01;79.68;;;33.22;;
31652;SDS011;18261;53.648;9.910;2022-08-19T02:47:26;77.35;;;30.88;;
31652;SDS011;18261;53.648;9.910;2022-08-19T02:49:52;89.45;;;32.10;;
31652;SDS011;18261;53.648;9.910;2022-08-19T02:52:18;77.07;;;31.55;;
31652;SDS011;18261;53.648;9.910;2022-08-19T02:54:45;74.50;;;30.60;;
31652;SDS011;18261;53.648;9.910;2022-08-19T02:57:11;72.38;;;30.35;;
31652;SDS011;18261;53.648;9.910;2022-08-19T02:59:37;68.40;;;27.83;;
31652;SDS011;18261;53.648;9.910;2022-08-19T03:02:03;73.30;;;28.98;;
31652;SDS011;18261;53.648;9.910;2022-08-19T03:04:29;73.38;;;29.10;;
31652;SDS011;18261;53.648;9.910;2022-08-19T03:06:55;72.07;;;27.52;;
31652;SDS011;18261;53.648;9.910;2022-08-19T03:09:21;69.95;;;27.67;;
31652;SDS011;18261;53.648;9.910;2022-08-19T03:11:47;69.07;;;28.70;;
31652;SDS011;18261;53.648;9.910;2022-08-19T03:14:13;67.68;;;27.60;;
31652;SDS011;18261;53.648;9.910;2022-08-19T03:16:44;65.55;;;26.38;;
31652;SDS011;18261;53.648;9.910;2022-08-19T03:19:10;69.72;;;27.95;;
31652;SDS011;18261;53.648;9.910;2022-08-19T03:21:36;67.55;;;28.45;;
31652;SDS011;18261;53.648;9.910;2022-08-19T03:24:03;59.85;;;25.38;;
31652;SDS011;18261;53.648;9.910;2022-08-19T03:26:30;67.68;;;28.50;;
31652;SDS011;18261;53.648;9.910;2022-08-19T03:28:56;50.83;;;23.13;;
31652;SDS011;18261;53.648;9.910;2022-08-19T03:31:24;60.38;;;26.10;;
31652;SDS011;18261;53.648;9.910;2022-08-19T03:33:50;63.17;;;26.33;;
31652;SDS011;18261;53.648;9.910;2022-08-19T03:36:18;58.72;;;25.17;;
31652;SDS011;18261;53.648;9.910;2022-08-19T03:38:46;60.75;;;27.08;;
31652;SDS011;18261;53.648;9.910;2022-08-19T03:41:16;53.95;;;23.10;;
31652;SDS011;18261;53.648;9.910;2022-08-19T03:43:43;51.47;;;23.45;;
31652;SDS011;18261;53.648;9.910;2022-08-19T03:46:13;52.67;;;23.80;;
31652;SDS011;18261;53.648;9.910;2022-08-19T03:48:40;53.90;;;24.67;;
31652;SDS011;18261;53.648;9.910;2022-08-19T03:51:06;63.08;;;26.10;;
31652;SDS011;18261;53.648;9.910;2022-08-19T03:53:33;58.83;;;23.80;;
31652;SDS011;18261;53.648;9.910;2022-08-19T03:55:59;63.83;;;25.40;;
31652;SDS011;18261;53.648;9.910;2022-08-19T03:58:25;60.05;;;24.52;;
31652;SDS011;18261;53.648;9.910;2022-08-19T04:00:53;64.30;;;23.63;;
31652;SDS011;18261;53.648;9.910;2022-08-19T04:03:20;63.80;;;27.52;;
31652;SDS011;18261;53.648;9.910;2022-08-19T04:05:46;58.40;;;27.10;;
31652;SDS011;18261;53.648;9.910;2022-08-19T04:08:12;71.70;;;28.98;;
31652;SDS011;18261;53.648;9.910;2022-08-19T04:10:40;63.38;;;29.55;;
31652;SDS011;18261;53.648;9.910;2022-08-19T04:13:06;72.07;;;29.13;;
31652;SDS011;18261;53.648;9.910;2022-08-19T04:15:33;68.78;;;28.10;;
31652;SDS011;18261;53.648;9.910;2022-08-19T04:18:06;66.20;;;29.58;;
31652;SDS011;18261;53.648;9.910;2022-08-19T04:20:32;72.88;;;32.85;;
31652;SDS011;18261;53.648;9.910;2022-08-19T04:22:58;84.80;;;35.53;;
31652;SDS011;18261;53.648;9.910;2022-08-19T04:25:24;82.93;;;34.33;;
31652;SDS011;18261;53.648;9.910;2022-08-19T04:27:50;77.60;;;31.65;;
31652;SDS011;18261;53.648;9.910;2022-08-19T04:30:16;86.80;;;36.47;;
31652;SDS011;18261;53.648;9.910;2022-08-19T04:32:42;109.20;;;40.22;;
31652;SDS011;18261;53.648;9.910;2022-08-19T04:35:08;92.00;;;36.92;;
31652;SDS011;18261;53.648;9.910;2022-08-19T04:37:35;104.63;;;43.38;;
31652;SDS011;18261;53.648;9.910;2022-08-19T04:40:00;95.82;;;38.90;;
31652;SDS011;18261;53.648;9.910;2022-08-19T04:42:45;98.90;;;41.97;;
31652;SDS011;18261;53.648;9.910;2022-08-19T04:45:12;105.18;;;39.85;;
31652;SDS011;18261;53.648;9.910;2022-08-19T04:47:39;119.15;;;43.45;;
31652;SDS011;18261;53.648;9.910;2022-08-19T04:50:05;112.40;;;42.22;;
31652;SDS011;18261;53.648;9.910;2022-08-19T04:52:32;111.35;;;43.85;;
31652;SDS011;18261;53.648;9.910;2022-08-19T04:54:58;111.57;;;42.70;;
31652;SDS011;18261;53.648;9.910;2022-08-19T04:57:24;119.32;;;43.65;;
31652;SDS011;18261;53.648;9.910;2022-08-19T04:59:55;104.15;;;42.25;;
31652;SDS011;18261;53.648;9.910;2022-08-19T05:02:21;102.00;;;40.92;;
31652;SDS011;18261;53.648;9.910;2022-08-19T05:04:51;105.97;;;41.00;;
31652;SDS011;18261;53.648;9.910;2022-08-19T05:07:17;92.18;;;38.38;;
31652;SDS011;18261;53.648;9.910;2022-08-19T05:09:43;104.57;;;41.72;;
31652;SDS011;18261;53.648;9.910;2022-08-19T05:12:09;96.75;;;40.30;;
31652;SDS011;18261;53.648;9.910;2022-08-19T05:14:35;112.15;;;44.47;;
31652;SDS011;18261;53.648;9.910;2022-08-19T05:17:01;103.97;;;39.47;;
31652;SDS011;18261;53.648;9.910;2022-08-19T05:19:27;94.80;;;39.92;;
31652;SDS011;18261;53.648;9.910;2022-08-19T05:22:12;97.38;;;40.92;;
31652;SDS011;18261;53.648;9.910;2022-08-19T05:24:56;101.63;;;43.30;;
31652;SDS011;18261;53.648;9.910;2022-08-19T05:27:22;102.88;;;42.85;;
31652;SDS011;18261;53.648;9.910;2022-08-19T05:29:48;102.45;;;46.03;;
31652;SDS011;18261;53.648;9.910;2022-08-19T05:32:14;99.10;;;45.67;;
31652;SDS011;18261;53.648;9.910;2022-08-19T05:34:40;101.38;;;45.35;;
31652;SDS011;18261;53.648;9.910;2022-08-19T05:37:06;97.32;;;45.72;;
31652;SDS011;18261;53.648;9.910;2022-08-19T05:39:33;94.57;;;47.38;;
31652;SDS011;18261;53.648;9.910;2022-08-19T05:42:01;107.55;;;48.35;;
31652;SDS011;18261;53.648;9.910;2022-08-19T05:44:28;107.38;;;46.22;;
31652;SDS011;18261;53.648;9.910;2022-08-19T05:46:56;95.45;;;44.15;;
31652;SDS011;18261;53.648;9.910;2022-08-19T05:49:23;92.65;;;44.70;;
31652;SDS011;18261;53.648;9.910;2022-08-19T05:51:50;89.55;;;43.63;;
31652;SDS011;18261;53.648;9.910;2022-08-19T05:54:16;96.45;;;43.38;;
31652;SDS011;18261;53.648;9.910;2022-08-19T05:56:42;105.82;;;46.38;;
31652;SDS011;18261;53.648;9.910;2022-08-19T05:59:09;96.43;;;45.20;;
31652;SDS011;18261;53.648;9.910;2022-08-19T06:01:39;98.18;;;46.63;;
31652;SDS011;18261;53.648;9.910;2022-08-19T06:04:05;103.38;;;46.40;;
31652;SDS011;18261;53.648;9.910;2022-08-19T06:06:32;111.47;;;48.25;;
31652;SDS011;18261;53.648;9.910;2022-08-19T06:09:00;106.55;;;46.95;;
31652;SDS011;18261;53.648;9.910;2022-08-19T06:11:39;103.18;;;46.35;;
31652;SDS011;18261;53.648;9.910;2022-08-19T06:14:10;100.38;;;47.00;;
31652;SDS011;18261;53.648;9.910;2022-08-19T06:16:37;98.45;;;43.28;;
31652;SDS011;18261;53.648;9.910;2022-08-19T06:19:04;103.00;;;47.15;;
31652;SDS011;18261;53.648;9.910;2022-08-19T06:21:31;110.25;;;50.42;;
31652;SDS011;18261;53.648;9.910;2022-08-19T06:23:57;107.57;;;46.45;;
31652;SDS011;18261;53.648;9.910;2022-08-19T06:26:24;102.90;;;46.33;;
31652;SDS011;18261;53.648;9.910;2022-08-19T06:28:50;101.80;;;45.33;;
31652;SDS011;18261;53.648;9.910;2022-08-19T06:31:18;99.00;;;45.40;;
31652;SDS011;18261;53.648;9.910;2022-08-19T06:33:45;93.00;;;44.30;;
31652;SDS011;18261;53.648;9.910;2022-08-19T06:38:43;100.82;;;44.25;;
31652;SDS011;18261;53.648;9.910;2022-08-19T06:41:09;97.38;;;46.20;;
31652;SDS011;18261;53.648;9.910;2022-08-19T06:43:36;81.20;;;38.72;;
31652;SDS011;18261;53.648;9.910;2022-08-19T06:46:02;85.20;;;41.95;;
31652;SDS011;18261;53.648;9.910;2022-08-19T06:48:28;92.00;;;41.35;;
31652;SDS011;18261;53.648;9.910;2022-08-19T06:50:54;91.13;;;41.20;;
31652;SDS011;18261;53.648;9.910;2022-08-19T06:53:21;72.28;;;37.53;;
31652;SDS011;18261;53.648;9.910;2022-08-19T06:55:46;80.03;;;37.35;;
31652;SDS011;18261;53.648;9.910;2022-08-19T06:58:12;82.53;;;41.10;;
31652;SDS011;18261;53.648;9.910;2022-08-19T07:00:39;69.60;;;34.72;;
31652;SDS011;18261;53.648;9.910;2022-08-19T07:03:05;62.28;;;31.73;;
31652;SDS011;18261;53.648;9.910;2022-08-19T07:05:31;73.93;;;37.05;;
31652;SDS011;18261;53.648;9.910;2022-08-19T07:07:57;60.22;;;33.13;;
31652;SDS011;18261;53.648;9.910;2022-08-19T07:10:23;68.85;;;34.28;;
31652;SDS011;18261;53.648;9.910;2022-08-19T07:12:50;61.85;;;32.00;;
31652;SDS011;18261;53.648;9.910;2022-08-19T07:15:16;68.90;;;35.28;;
31652;SDS011;18261;53.648;9.910;2022-08-19T07:17:42;76.70;;;37.10;;
31652;SDS011;18261;53.648;9.910;2022-08-19T07:20:08;53.40;;;28.55;;
31652;SDS011;18261;53.648;9.910;2022-08-19T07:22:35;64.00;;;35.08;;
31652;SDS011;18261;53.648;9.910;2022-08-19T07:25:01;57.28;;;29.88;;
31652;SDS011;18261;53.648;9.910;2022-08-19T07:27:28;65.88;;;33.80;;
31652;SDS011;18261;53.648;9.910;2022-08-19T07:29:54;78.22;;;36.67;;
31652;SDS011;18261;53.648;9.910;2022-08-19T07:32:20;62.92;;;33.17;;
31652;SDS011;18261;53.648;9.910;2022-08-19T07:34:46;86.55;;;42.65;;
31652;SDS011;18261;53.648;9.910;2022-08-19T07:37:12;64.25;;;34.40;;
31652;SDS011;18261;53.648;9.910;2022-08-19T07:39:38;71.50;;;37.30;;
31652;SDS011;18261;53.648;9.910;2022-08-19T07:42:06;73.70;;;37.78;;
31652;SDS011;18261;53.648;9.910;2022-08-19T07:44:33;79.13;;;41.92;;
31652;SDS011;18261;53.648;9.910;2022-08-19T07:47:00;75.30;;;39.42;;
31652;SDS011;18261;53.648;9.910;2022-08-19T07:49:26;83.10;;;43.90;;
31652;SDS011;18261;53.648;9.910;2022-08-19T07:51:54;84.70;;;43.25;;
31652;SDS011;18261;53.648;9.910;2022-08-19T07:54:22;68.72;;;37.50;;
31652;SDS011;18261;53.648;9.910;2022-08-19T07:56:48;72.15;;;38.22;;
31652;SDS011;18261;53.648;9.910;2022-08-19T07:59:18;68.57;;;36.78;;
31652;SDS011;18261;53.648;9.910;2022-08-19T08:01:45;117.90;;;58.15;;
31652;SDS011;18261;53.648;9.910;2022-08-19T08:04:11;78.38;;;41.15;;
31652;SDS011;18261;53.648;9.910;2022-08-19T08:09:42;74.70;;;41.10;;
31652;SDS011;18261;53.648;9.910;2022-08-19T08:12:15;71.22;;;39.60;;
31652;SDS011;18261;53.648;9.910;2022-08-19T08:14:43;64.30;;;34.70;;
31652;SDS011;18261;53.648;9.910;2022-08-19T08:17:10;70.75;;;36.67;;
31652;SDS011;18261;53.648;9.910;2022-08-19T08:19:37;66.60;;;37.00;;
31652;SDS011;18261;53.648;9.910;2022-08-19T08:22:05;61.08;;;34.05;;
31652;SDS011;18261;53.648;9.910;2022-08-19T08:24:32;58.28;;;32.17;;
31652;SDS011;18261;53.648;9.910;2022-08-19T08:27:00;47.22;;;26.38;;
31652;SDS011;18261;53.648;9.910;2022-08-19T08:29:27;48.88;;;24.77;;
31652;SDS011;18261;53.648;9.910;2022-08-19T08:31:54;42.50;;;23.75;;
31652;SDS011;18261;53.648;9.910;2022-08-19T08:34:20;47.90;;;24.95;;
31652;SDS011;18261;53.648;9.910;2022-08-19T08:36:46;46.88;;;24.75;;
31652;SDS011;18261;53.648;9.910;2022-08-19T08:39:13;41.88;;;22.92;;
31652;SDS011;18261;53.648;9.910;2022-08-19T08:44:17;39.85;;;21.63;;
31652;SDS011;18261;53.648;9.910;2022-08-19T08:46:47;67.30;;;24.13;;
31652;SDS011;18261;53.648;9.910;2022-08-19T08:54:27;25.58;;;15.20;;
31652;SDS011;18261;53.648;9.910;2022-08-19T08:56:55;35.22;;;17.00;;
31652;SDS011;18261;53.648;9.910;2022-08-19T08:59:26;28.23;;;17.63;;
31652;SDS011;18261;53.648;9.910;2022-08-19T09:01:57;36.35;;;18.77;;
31652;SDS011;18261;53.648;9.910;2022-08-19T09:04:23;35.35;;;17.58;;
31652;SDS011;18261;53.648;9.910;2022-08-19T09:12:03;25.92;;;14.57;;
31652;SDS011;18261;53.648;9.910;2022-08-19T09:16:57;21.58;;;11.90;;
31652;SDS011;18261;53.648;9.910;2022-08-19T09:19:24;26.40;;;13.48;;
31652;SDS011;18261;53.648;9.910;2022-08-19T09:21:50;23.10;;;12.85;;
31652;SDS011;18261;53.648;9.910;2022-08-19T09:24:16;19.02;;;11.73;;
31652;SDS011;18261;53.648;9.910;2022-08-19T09:26:42;26.20;;;12.27;;
31652;SDS011;18261;53.648;9.910;2022-08-19T09:29:09;26.77;;;12.50;;
31652;SDS011;18261;53.648;9.910;2022-08-19T09:31:35;20.95;;;11.95;;
31652;SDS011;18261;53.648;9.910;2022-08-19T09:34:01;30.70;;;13.20;;
31652;SDS011;18261;53.648;9.910;2022-08-19T09:36:29;22.13;;;12.15;;
31652;SDS011;18261;53.648;9.910;2022-08-19T09:38:58;26.98;;;12.20;;
31652;SDS011;18261;53.648;9.910;2022-08-19T09:41:25;31.40;;;13.35;;
31652;SDS011;18261;53.648;9.910;2022-08-19T09:43:52;24.15;;;12.05;;
31652;SDS011;18261;53.648;9.910;2022-08-19T09:46:20;25.55;;;13.07;;
31652;SDS011;18261;53.648;9.910;2022-08-19T09:48:47;29.65;;;16.25;;
31652;SDS011;18261;53.648;9.910;2022-08-19T09:51:14;29.70;;;15.85;;
31652;SDS011;18261;53.648;9.910;2022-08-19T09:53:40;43.05;;;18.23;;
31652;SDS011;18261;53.648;9.910;2022-08-19T09:56:07;31.52;;;15.63;;
31652;SDS011;18261;53.648;9.910;2022-08-19T09:58:34;25.77;;;14.77;;
31652;SDS011;18261;53.648;9.910;2022-08-19T10:01:01;31.15;;;16.85;;
31652;SDS011;18261;53.648;9.910;2022-08-19T10:03:27;34.58;;;17.02;;
31652;SDS011;18261;53.648;9.910;2022-08-19T10:05:54;37.60;;;20.02;;
31652;SDS011;18261;53.648;9.910;2022-08-19T10:08:22;33.38;;;17.75;;
31652;SDS011;18261;53.648;9.910;2022-08-19T10:10:48;39.75;;;19.88;;
31652;SDS011;18261;53.648;9.910;2022-08-19T10:13:18;33.78;;;18.52;;
31652;SDS011;18261;53.648;9.910;2022-08-19T10:15:46;33.05;;;17.73;;
31652;SDS011;18261;53.648;9.910;2022-08-19T10:18:15;38.72;;;19.23;;
31652;SDS011;18261;53.648;9.910;2022-08-19T10:20:44;37.17;;;20.65;;
31652;SDS011;18261;53.648;9.910;2022-08-19T10:23:10;35.70;;;18.95;;
31652;SDS011;18261;53.648;9.910;2022-08-19T10:25:36;37.38;;;19.33;;
31652;SDS011;18261;53.648;9.910;2022-08-19T10:28:03;40.72;;;20.85;;
31652;SDS011;18261;53.648;9.910;2022-08-19T10:30:30;48.58;;;22.52;;
31652;SDS011;18261;53.648;9.910;2022-08-19T10:32:57;43.03;;;21.95;;
31652;SDS011;18261;53.648;9.910;2022-08-19T10:35:23;43.40;;;22.55;;
31652;SDS011;18261;53.648;9.910;2022-08-19T10:37:52;43.80;;;22.58;;
31652;SDS011;18261;53.648;9.910;2022-08-19T10:40:18;39.83;;;20.60;;
31652;SDS011;18261;53.648;9.910;2022-08-19T10:42:44;41.00;;;19.90;;
31652;SDS011;18261;53.648;9.910;2022-08-19T10:45:10;43.42;;;21.80;;
31652;SDS011;18261;53.648;9.910;2022-08-19T10:47:36;41.13;;;20.95;;
31652;SDS011;18261;53.648;9.910;2022-08-19T10:50:02;38.13;;;20.42;;
31652;SDS011;18261;53.648;9.910;2022-08-19T10:52:48;34.78;;;18.00;;
31652;SDS011;18261;53.648;9.910;2022-08-19T10:55:14;45.83;;;19.45;;
31652;SDS011;18261;53.648;9.910;2022-08-19T10:57:59;35.30;;;18.13;;
31652;SDS011;18261;53.648;9.910;2022-08-19T11:00:26;34.03;;;17.35;;
31652;SDS011;18261;53.648;9.910;2022-08-19T11:02:51;36.55;;;16.15;;
31652;SDS011;18261;53.648;9.910;2022-08-19T11:05:18;38.15;;;19.08;;
31652;SDS011;18261;53.648;9.910;2022-08-19T11:07:44;33.15;;;16.67;;
31652;SDS011;18261;53.648;9.910;2022-08-19T11:10:12;31.08;;;16.15;;
31652;SDS011;18261;53.648;9.910;2022-08-19T11:12:38;32.85;;;16.98;;
31652;SDS011;18261;53.648;9.910;2022-08-19T11:15:07;37.40;;;17.35;;
31652;SDS011;18261;53.648;9.910;2022-08-19T11:17:35;30.35;;;16.05;;
31652;SDS011;18261;53.648;9.910;2022-08-19T11:20:05;32.80;;;18.25;;
31652;SDS011;18261;53.648;9.910;2022-08-19T11:22:31;37.55;;;21.13;;
31652;SDS011;18261;53.648;9.910;2022-08-19T11:24:57;34.50;;;20.05;;
31652;SDS011;18261;53.648;9.910;2022-08-19T11:27:23;28.48;;;15.45;;
31652;SDS011;18261;53.648;9.910;2022-08-19T11:29:49;29.55;;;13.27;;
31652;SDS011;18261;53.648;9.910;2022-08-19T11:32:17;27.42;;;16.13;;
31652;SDS011;18261;53.648;9.910;2022-08-19T11:34:43;25.15;;;13.90;;
31652;SDS011;18261;53.648;9.910;2022-08-19T11:37:09;21.23;;;12.48;;
31652;SDS011;18261;53.648;9.910;2022-08-19T11:39:35;27.60;;;13.73;;
31652;SDS011;18261;53.648;9.910;2022-08-19T11:42:02;24.58;;;12.98;;
31652;SDS011;18261;53.648;9.910;2022-08-19T11:44:48;28.67;;;14.73;;
31652;SDS011;18261;53.648;9.910;2022-08-19T11:47:14;25.15;;;15.82;;
31652;SDS011;18261;53.648;9.910;2022-08-19T11:49:40;26.63;;;15.35;;
31652;SDS011;18261;53.648;9.910;2022-08-19T11:52:07;29.42;;;14.20;;
31652;SDS011;18261;53.648;9.910;2022-08-19T11:54:33;22.95;;;14.18;;
31652;SDS011;18261;53.648;9.910;2022-08-19T11:57:01;42.35;;;21.08;;
31652;SDS011;18261;53.648;9.910;2022-08-19T11:59:27;34.67;;;17.67;;
31652;SDS011;18261;53.648;9.910;2022-08-19T12:01:54;28.80;;;14.73;;
31652;SDS011;18261;53.648;9.910;2022-08-19T12:04:20;24.30;;;13.68;;
31652;SDS011;18261;53.648;9.910;2022-08-19T12:06:46;25.75;;;15.40;;
31652;SDS011;18261;53.648;9.910;2022-08-19T12:09:12;28.00;;;17.83;;
31652;SDS011;18261;53.648;9.910;2022-08-19T12:11:40;25.83;;;15.10;;
31652;SDS011;18261;53.648;9.910;2022-08-19T12:14:06;32.00;;;15.27;;
31652;SDS011;18261;53.648;9.910;2022-08-19T12:16:34;22.65;;;12.95;;
31652;SDS011;18261;53.648;9.910;2022-08-19T12:19:00;19.65;;;11.75;;
31652;SDS011;18261;53.648;9.910;2022-08-19T12:21:29;22.05;;;14.48;;
31652;SDS011;18261;53.648;9.910;2022-08-19T12:23:56;19.35;;;12.77;;
31652;SDS011;18261;53.648;9.910;2022-08-19T12:26:23;23.95;;;12.60;;
31652;SDS011;18261;53.648;9.910;2022-08-19T12:28:49;20.27;;;11.20;;
31652;SDS011;18261;53.648;9.910;2022-08-19T12:31:16;22.45;;;13.18;;
31652;SDS011;18261;53.648;9.910;2022-08-19T12:33:42;17.25;;;10.73;;
31652;SDS011;18261;53.648;9.910;2022-08-19T12:36:10;19.02;;;11.30;;
31652;SDS011;18261;53.648;9.910;2022-08-19T12:38:37;21.15;;;12.15;;
31652;SDS011;18261;53.648;9.910;2022-08-19T12:41:04;18.40;;;12.52;;
31652;SDS011;18261;53.648;9.910;2022-08-19T12:43:30;23.63;;;14.13;;
31652;SDS011;18261;53.648;9.910;2022-08-19T12:45:56;20.80;;;10.82;;
31652;SDS011;18261;53.648;9.910;2022-08-19T12:48:22;17.67;;;10.02;;
31652;SDS011;18261;53.648;9.910;2022-08-19T12:50:48;18.95;;;11.68;;
31652;SDS011;18261;53.648;9.910;2022-08-19T12:53:14;20.23;;;11.60;;
31652;SDS011;18261;53.648;9.910;2022-08-19T12:55:40;17.77;;;12.07;;
31652;SDS011;18261;53.648;9.910;2022-08-19T12:58:07;21.83;;;12.95;;
31652;SDS011;18261;53.648;9.910;2022-08-19T13:00:33;19.90;;;14.05;;
31652;SDS011;18261;53.648;9.910;2022-08-19T13:03:00;23.17;;;14.50;;
31652;SDS011;18261;53.648;9.910;2022-08-19T13:05:27;23.40;;;13.25;;
31652;SDS011;18261;53.648;9.910;2022-08-19T13:07:55;24.52;;;12.82;;
31652;SDS011;18261;53.648;9.910;2022-08-19T13:10:22;20.15;;;11.90;;
31652;SDS011;18261;53.648;9.910;2022-08-19T13:12:50;18.08;;;13.02;;
31652;SDS011;18261;53.648;9.910;2022-08-19T13:15:16;19.25;;;12.85;;
31652;SDS011;18261;53.648;9.910;2022-08-19T13:17:46;15.70;;;11.15;;
31652;SDS011;18261;53.648;9.910;2022-08-19T13:20:14;17.73;;;11.75;;
31652;SDS011;18261;53.648;9.910;2022-08-19T13:22:40;18.52;;;10.90;;
31652;SDS011;18261;53.648;9.910;2022-08-19T13:25:07;19.52;;;12.02;;
31652;SDS011;18261;53.648;9.910;2022-08-19T13:27:33;22.00;;;12.48;;
31652;SDS011;18261;53.648;9.910;2022-08-19T13:29:59;26.60;;;13.30;;
31652;SDS011;18261;53.648;9.910;2022-08-19T13:32:44;20.67;;;12.02;;
31652;SDS011;18261;53.648;9.910;2022-08-19T13:35:29;27.20;;;17.67;;
31652;SDS011;18261;53.648;9.910;2022-08-19T13:37:55;18.30;;;12.80;;
31652;SDS011;18261;53.648;9.910;2022-08-19T13:40:22;21.88;;;12.15;;
31652;SDS011;18261;53.648;9.910;2022-08-19T13:42:49;23.92;;;17.08;;
31652;SDS011;18261;53.648;9.910;2022-08-19T13:45:16;24.75;;;16.35;;
31652;SDS011;18261;53.648;9.910;2022-08-19T13:47:44;18.77;;;13.50;;
31652;SDS011;18261;53.648;9.910;2022-08-19T13:50:11;15.98;;;11.85;;
31652;SDS011;18261;53.648;9.910;2022-08-19T13:52:38;22.23;;;12.90;;
31652;SDS011;18261;53.648;9.910;2022-08-19T13:55:04;19.17;;;13.40;;
31652;SDS011;18261;53.648;9.910;2022-08-19T13:57:30;20.10;;;14.93;;
31652;SDS011;18261;53.648;9.910;2022-08-19T13:59:57;23.35;;;15.77;;
31652;SDS011;18261;53.648;9.910;2022-08-19T14:02:23;25.00;;;16.70;;
31652;SDS011;18261;53.648;9.910;2022-08-19T14:04:49;25.05;;;17.42;;
31652;SDS011;18261;53.648;9.910;2022-08-19T14:07:15;25.17;;;17.00;;
31652;SDS011;18261;53.648;9.910;2022-08-19T14:09:41;22.02;;;15.02;;
31652;SDS011;18261;53.648;9.910;2022-08-19T14:12:07;22.45;;;17.20;;
31652;SDS011;18261;53.648;9.910;2022-08-19T14:14:39;21.30;;;15.75;;
31652;SDS011;18261;53.648;9.910;2022-08-19T14:17:06;28.98;;;17.20;;
31652;SDS011;18261;53.648;9.910;2022-08-19T14:19:32;20.17;;;14.70;;
31652;SDS011;18261;53.648;9.910;2022-08-19T14:21:58;26.98;;;16.95;;
31652;SDS011;18261;53.648;9.910;2022-08-19T14:24:24;25.15;;;16.00;;
31652;SDS011;18261;53.648;9.910;2022-08-19T14:26:50;23.00;;;16.27;;
31652;SDS011;18261;53.648;9.910;2022-08-19T14:29:16;24.35;;;15.95;;
31652;SDS011;18261;53.648;9.910;2022-08-19T14:31:42;23.35;;;15.63;;
31652;SDS011;18261;53.648;9.910;2022-08-19T14:34:09;27.20;;;18.33;;
31652;SDS011;18261;53.648;9.910;2022-08-19T14:36:36;27.60;;;14.73;;
31652;SDS011;18261;53.648;9.910;2022-08-19T14:39:02;19.55;;;15.10;;
31652;SDS011;18261;53.648;9.910;2022-08-19T14:41:28;20.02;;;13.45;;